createdAt,value
2023-02-16T00:00:23.827Z,100.00
2023-02-16T00:15:23.025Z,100.00
2023-02-16T00:30:23.340Z,100.00
2023-02-16T00:45:23.189Z,100.00
2023-02-16T01:00:25.310Z,100.00
2023-02-16T01:15:23.453Z,100.00
2023-02-16T01:30:24.223Z,100.00
2023-02-16T01:45:24.272Z,100.00
2023-02-16T02:00:24.327Z,100.00
2023-02-16T02:15:23.637Z,100.00
2023-02-16T02:30:24.556Z,100.00
2023-02-16T02:45:33.377Z,100.00
2023-02-16T03:00:33.544Z,100.00
2023-02-16T03:15:23.792Z,100.00
2023-02-16T03:30:23.878Z,100.00
2023-02-16T03:45:23.706Z,100.00
2023-02-16T04:00:23.506Z,100.00
2023-02-16T04:15:23.933Z,100.00
2023-02-16T04:30:23.783Z,100.00
2023-02-16T04:45:23.876Z,100.00
2023-02-16T05:00:23.910Z,100.00
2023-02-16T05:15:24.068Z,100.00
2023-02-16T05:30:23.808Z,100.00
2023-02-16T05:45:24.112Z,100.00
2023-02-16T06:00:24.215Z,100.00
2023-02-16T06:15:24.282Z,100.00
2023-02-16T06:30:24.327Z,100.00
2023-02-16T06:45:24.346Z,100.00
2023-02-16T07:00:24.490Z,100.00
2023-02-16T07:15:24.405Z,100.00
2023-02-16T07:30:24.210Z,100.00
2023-02-16T07:45:33.326Z,100.00
2023-02-16T08:00:33.676Z,100.00
2023-02-16T08:15:23.590Z,100.00
2023-02-16T08:30:23.717Z,100.00
2023-02-16T08:45:23.525Z,100.00
2023-02-16T09:00:23.864Z,100.00
2023-02-16T09:15:23.633Z,100.00
2023-02-16T09:30:24.157Z,100.00
2023-02-16T09:45:23.898Z,100.00
2023-02-16T10:00:23.880Z,100.00
2023-02-16T10:15:23.829Z,100.00
2023-02-16T10:30:23.941Z,100.00
2023-02-16T10:45:26.289Z,100.00
2023-02-16T11:00:24.618Z,100.00
2023-02-16T11:15:23.676Z,100.00
2023-02-16T11:30:23.661Z,100.00
2023-02-16T11:45:23.855Z,100.00
2023-02-16T12:00:23.662Z,100.00
2023-02-16T12:15:23.684Z,96.85
2023-02-16T12:30:23.983Z,94.15
2023-02-16T12:45:24.033Z,92.00
2023-02-16T13:00:24.222Z,91.17
2023-02-16T13:15:23.907Z,86.53
2023-02-16T13:30:24.120Z,77.50
2023-02-16T13:45:23.996Z,78.57
2023-02-16T14:00:24.006Z,78.17
2023-02-16T14:15:24.269Z,76.37
2023-02-16T14:30:24.436Z,78.65
2023-02-16T14:45:24.246Z,84.40
2023-02-16T15:00:24.199Z,84.63
2023-02-16T15:15:33.298Z,86.70
2023-02-16T15:30:33.490Z,89.40
2023-02-16T15:45:33.521Z,91.45
2023-02-16T16:00:33.484Z,91.47
2023-02-16T16:15:23.663Z,91.30
2023-02-16T16:30:23.836Z,97.60
2023-02-16T16:45:23.969Z,100.00
2023-02-16T17:00:23.914Z,100.00
2023-02-16T17:15:23.720Z,100.00
2023-02-16T17:30:23.981Z,100.00
2023-02-16T17:45:23.888Z,100.00
2023-02-16T18:00:23.905Z,100.00
2023-02-16T18:15:23.935Z,100.00
2023-02-16T18:30:24.163Z,100.00
2023-02-16T18:45:24.127Z,100.00
2023-02-16T19:00:24.082Z,100.00
2023-02-16T19:15:24.243Z,100.00
2023-02-16T19:30:24.632Z,100.00
2023-02-16T19:45:24.573Z,100.00
2023-02-16T20:00:24.344Z,100.00
2023-02-16T20:15:33.415Z,100.00
2023-02-16T20:30:34.601Z,100.00
2023-02-16T20:45:33.757Z,100.00
2023-02-16T21:00:33.726Z,100.00
2023-02-16T21:15:23.656Z,100.00
2023-02-16T21:30:23.712Z,100.00
2023-02-16T21:45:23.802Z,100.00
2023-02-16T22:00:23.734Z,100.00
2023-02-16T22:15:23.704Z,100.00
2023-02-16T22:30:23.907Z,100.00
2023-02-16T22:45:23.807Z,100.00
2023-02-16T23:15:23.474Z,100.00
2023-02-16T23:30:23.715Z,100.00
2023-02-16T23:45:23.686Z,100.00
